Observation data for Morton on 08/20/2019      Previous  Date  Next       Current Mesonet Observations  Soil Data  Daily Summary Page  Observations in Plain Language
KMNS 200500Z 17007KT 28/12 A3009 RMK A01 T02830120  RH  038%=      5-min Rain = 0
KMNS 200505Z 16007KT 28/12 A301 RMK A01 T02820120  RH  038%=      5-min Rain = 0
KMNS 200510Z 16007KT 28/12 A301 RMK A01 T02820120  RH  038%=      5-min Rain = 0
KMNS 200515Z 14007KT 28/12 A301 RMK A01 T02800121  RH  039%=      5-min Rain = 0
KMNS 200520Z 14007KT 28/12 A301 RMK A01 T02750122  RH  040%=      5-min Rain = 0
KMNS 200525Z 15007KT 27/12 A301 RMK A01 T02740123  RH  041%=      5-min Rain = 0
KMNS 200530Z 14007KT 27/12 A301 RMK A01 T02720124  RH  042%=      5-min Rain = 0
KMNS 200535Z 14007KT 27/13 A301 RMK A01 T02710125  RH  042%=      5-min Rain = 0
KMNS 200540Z 14007KT 27/12 A301 RMK A01 T02710124  RH  042%=      5-min Rain = 0
KMNS 200545Z 14007KT 27/13 A301 RMK A01 T02700125  RH  042%=      5-min Rain = 0
KMNS 200550Z 15007KT 27/13 A301 RMK A01 T02680125  RH  043%=      5-min Rain = 0
KMNS 200555Z 16007KT 27/13 A301 RMK A01 T02680125  RH  043%=      5-min Rain = 0
KMNS 200600Z 16008KT 27/13 A301 RMK A01 T02700125  RH  042%=      5-min Rain = 0
KMNS 200605Z 16008KT 27/13 A301 RMK A01 T02700125  RH  042%=      5-min Rain = 0
KMNS 200610Z 16009KT 27/13 A301 RMK A01 T02720125  RH  042%=      5-min Rain = 0
KMNS 200615Z 16010G16KT 27/13 A3009 RMK A01 T02740125  RH  041%=      5-min Rain = 0
KMNS 200620Z 16010KT 28/13 A3009 RMK A01 T02750125  RH  041%=      5-min Rain = 0
KMNS 200625Z 16009KT 28/13 A3009 RMK A01 T02760125  RH  041%=      5-min Rain = 0
KMNS 200630Z 16009KT 28/13 A301 RMK A01 T02770126  RH  041%=      5-min Rain = 0
KMNS 200635Z 16008KT 28/13 A301 RMK A01 T02760126  RH  041%=      5-min Rain = 0
KMNS 200640Z 16008KT 28/13 A301 RMK A01 T02770127  RH  041%=      5-min Rain = 0
KMNS 200645Z 16008KT 28/13 A301 RMK A01 T02760127  RH  041%=      5-min Rain = 0
KMNS 200650Z 16008KT 28/13 A301 RMK A01 T02750127  RH  042%=      5-min Rain = 0
KMNS 200655Z 17007KT 28/13 A301 RMK A01 T02750127  RH  042%=      5-min Rain = 0
KMNS 200700Z 17007KT 27/13 A301 RMK A01 T02740127  RH  042%=      5-min Rain = 0
KMNS 200705Z 17007KT 27/13 A301 RMK A01 T02740127  RH  042%=      5-min Rain = 0
KMNS 200710Z 17007KT 27/13 A301 RMK A01 T02730127  RH  042%=      5-min Rain = 0
KMNS 200715Z 17008KT 27/13 A301 RMK A01 T02740126  RH  042%=      5-min Rain = 0
KMNS 200720Z 17007KT 27/13 A301 RMK A01 T02730126  RH  042%=      5-min Rain = 0
KMNS 200725Z 16007KT 27/13 A301 RMK A01 T02720127  RH  042%=      5-min Rain = 0
KMNS 200730Z 16007KT 27/13 A301 RMK A01 T02720127  RH  042%=      5-min Rain = 0
KMNS 200735Z 16007KT 27/13 A301 RMK A01 T02710127  RH  043%=      5-min Rain = 0
KMNS 200740Z 15007KT 27/13 A301 RMK A01 T02710127  RH  043%=      5-min Rain = 0
KMNS 200745Z 16008KT 27/13 A301 RMK A01 T02710127  RH  043%=      5-min Rain = 0
KMNS 200750Z 16008KT 27/13 A301 RMK A01 T02700127  RH  043%=      5-min Rain = 0
KMNS 200755Z 16008KT 27/13 A301 RMK A01 T02700127  RH  043%=      5-min Rain = 0
KMNS 200800Z 17008KT 27/13 A301 RMK A01 T02700126  RH  043%=      5-min Rain = 0
KMNS 200805Z 17007KT 27/13 A301 RMK A01 T02680126  RH  043%=      5-min Rain = 0
KMNS 200810Z 16007KT 27/13 A301 RMK A01 T02680126  RH  043%=      5-min Rain = 0
KMNS 200815Z 16007KT 27/13 A301 RMK A01 T02670126  RH  043%=      5-min Rain = 0
KMNS 200820Z 17006KT 27/13 A301 RMK A01 T02660126  RH  043%=      5-min Rain = 0
KMNS 200825Z 17006KT 26/13 A301 RMK A01 T02640126  RH  044%=      5-min Rain = 0
KMNS 200830Z 17006KT 26/13 A301 RMK A01 T02630125  RH  044%=      5-min Rain = 0
KMNS 200835Z 17007KT 26/13 A301 RMK A01 T02630125  RH  044%=      5-min Rain = 0
KMNS 200840Z 18007KT 26/12 A301 RMK A01 T02640124  RH  044%=      5-min Rain = 0
KMNS 200845Z 18007KT 26/12 A301 RMK A01 T02630124  RH  044%=      5-min Rain = 0
KMNS 200850Z 18008KT 26/12 A3011 RMK A01 T02610123  RH  044%=      5-min Rain = 0
KMNS 200855Z 18009KT 26/12 A301 RMK A01 T02620123  RH  043%=      5-min Rain = 0
KMNS 200900Z 18010KT 26/12 A301 RMK A01 T02640122  RH  043%=      5-min Rain = 0
KMNS 200905Z 19009KT 26/12 A3011 RMK A01 T02630122  RH  043%=      5-min Rain = 0
KMNS 200910Z 20008KT 26/12 A3011 RMK A01 T02590123  RH  044%=      5-min Rain = 0
KMNS 200915Z 20007KT 26/12 A3011 RMK A01 T02600122  RH  044%=      5-min Rain = 0
KMNS 200920Z 20006KT 26/12 A3011 RMK A01 T02580122  RH  044%=      5-min Rain = 0
KMNS 200925Z 20006KT 26/12 A3011 RMK A01 T02570122  RH  045%=      5-min Rain = 0
KMNS 200930Z 21006KT 26/12 A3011 RMK A01 T02580120  RH  044%=      5-min Rain = 0
KMNS 200935Z 20006KT 26/12 A3012 RMK A01 T02580120  RH  044%=      5-min Rain = 0
KMNS 200940Z 21006KT 26/12 A3012 RMK A01 T02580121  RH  044%=      5-min Rain = 0
KMNS 200945Z 22006KT 26/12 A3012 RMK A01 T02570121  RH  044%=      5-min Rain = 0
KMNS 200950Z 22004KT 26/12 A3012 RMK A01 T02580121  RH  044%=      5-min Rain = 0
KMNS 200955Z 21004KT 26/12 A3012 RMK A01 T02560122  RH  045%=      5-min Rain = 0
KMNS 201000Z 21003KT 25/12 A3012 RMK A01 T02530122  RH  046%=      5-min Rain = 0
KMNS 201005Z 21002KT 25/12 A3012 RMK A01 T02510123  RH  047%=      5-min Rain = 0
KMNS 201010Z 21003KT 25/12 A3012 RMK A01 T02510122  RH  046%=      5-min Rain = 0
KMNS 201015Z 22003KT 25/12 A3012 RMK A01 T02510122  RH  046%=      5-min Rain = 0
KMNS 201020Z 21004KT 25/12 A3012 RMK A01 T02510122  RH  046%=      5-min Rain = 0
KMNS 201025Z 21005KT 25/12 A3012 RMK A01 T02510121  RH  046%=      5-min Rain = 0
KMNS 201030Z 20006KT 25/12 A3012 RMK A01 T02540120  RH  045%=      5-min Rain = 0
KMNS 201035Z 21006KT 25/12 A3012 RMK A01 T02540120  RH  045%=      5-min Rain = 0
KMNS 201040Z 20007KT 25/12 A3012 RMK A01 T02540120  RH  045%=      5-min Rain = 0
KMNS 201045Z 20007KT 25/12 A3012 RMK A01 T02540121  RH  045%=      5-min Rain = 0
KMNS 201050Z 20006KT 25/12 A3012 RMK A01 T02520122  RH  046%=      5-min Rain = 0
KMNS 201055Z 20007KT 25/12 A3012 RMK A01 T02510121  RH  046%=      5-min Rain = 0
KMNS 201100Z 20006KT 25/12 A3012 RMK A01 T02500121  RH  046%=      5-min Rain = 0
KMNS 201105Z 21006KT 25/12 A3012 RMK A01 T02500121  RH  046%=      5-min Rain = 0
KMNS 201110Z 20006KT 25/12 A3012 RMK A01 T02490122  RH  047%=      5-min Rain = 0
KMNS 201115Z 20005KT 25/12 A3012 RMK A01 T02460122  RH  048%=      5-min Rain = 0
KMNS 201120Z 20005KT 24/12 A3013 RMK A01 T02420123  RH  049%=      5-min Rain = 0
KMNS 201125Z 21005KT 24/12 A3012 RMK A01 T02390124  RH  050%=      5-min Rain = 0
KMNS 201130Z 21006KT 24/13 A3012 RMK A01 T02370125  RH  051%=      5-min Rain = 0
KMNS 201135Z 22006KT 24/13 A3012 RMK A01 T02360125  RH  052%=      5-min Rain = 0
KMNS 201140Z 21005KT 24/13 A3012 RMK A01 T02360125  RH  052%=      5-min Rain = 0
KMNS 201145Z 20005KT 24/13 A3012 RMK A01 T02350125  RH  052%=      5-min Rain = 0
KMNS 201150Z 20004KT 23/13 A3012 RMK A01 T02340125  RH  052%=      5-min Rain = 0
KMNS 201155Z 20003KT 23/13 A3013 RMK A01 T02310125  RH  053%=      5-min Rain = 0
KMNS 201200Z 20004KT 23/13 A3013 RMK A01 T02290126  RH  054%=      5-min Rain = 0
KMNS 201205Z 20003KT 23/13 A3013 RMK A01 T02280127  RH  055%=      5-min Rain = 0
KMNS 201210Z 22004KT 23/13 A3013 RMK A01 T02260127  RH  056%=      5-min Rain = 0
KMNS 201215Z 22004KT 22/13 A3013 RMK A01 T02240127  RH  056%=      5-min Rain = 0
KMNS 201220Z 22005KT 22/13 A3013 RMK A01 T02240128  RH  057%=      5-min Rain = 0
KMNS 201225Z 22005KT 22/13 A3014 RMK A01 T02230129  RH  057%=      5-min Rain = 0
KMNS 201230Z 23005KT 22/13 A3014 RMK A01 T02220129  RH  058%=      5-min Rain = 0
KMNS 201235Z 21005KT 22/13 A3014 RMK A01 T02240130  RH  058%=      5-min Rain = 0
KMNS 201240Z 20005KT 23/13 A3014 RMK A01 T02260130  RH  057%=      5-min Rain = 0
KMNS 201245Z 20005KT 23/13 A3014 RMK A01 T02290130  RH  056%=      5-min Rain = 0
KMNS 201250Z 21004KT 23/13 A3014 RMK A01 T02310132  RH  056%=      5-min Rain = 0
KMNS 201255Z 22004KT 23/13 A3014 RMK A01 T02330134  RH  056%=      5-min Rain = 0
KMNS 201300Z 21004KT 24/14 A3014 RMK A01 T02360136  RH  055%=      5-min Rain = 0
KMNS 201305Z 19003KT 24/14 A3015 RMK A01 T02420135  RH  053%=      5-min Rain = 0
KMNS 201310Z 17003KT 24/13 A3015 RMK A01 T02420133  RH  053%=      5-min Rain = 0
KMNS 201315Z 17003KT 24/13 A3015 RMK A01 T02430134  RH  053%=      5-min Rain = 0
KMNS 201320Z 18004KT 24/14 A3015 RMK A01 T02440136  RH  053%=      5-min Rain = 0
KMNS 201325Z 18003KT 25/14 A3015 RMK A01 T02450137  RH  053%=      5-min Rain = 0
KMNS 201330Z 19003KT 25/14 A3015 RMK A01 T02460138  RH  053%=      5-min Rain = 0
KMNS 201335Z 19003KT 25/14 A3015 RMK A01 T02460141  RH  054%=      5-min Rain = 0
KMNS 201340Z 20003KT 25/14 A3015 RMK A01 T02460143  RH  055%=      5-min Rain = 0
KMNS 201345Z 20003KT 25/14 A3016 RMK A01 T02460143  RH  055%=      5-min Rain = 0
KMNS 201350Z 20003KT 25/14 A3016 RMK A01 T02480144  RH  055%=      5-min Rain = 0
KMNS 201355Z 18004KT 25/14 A3016 RMK A01 T02500142  RH  053%=      5-min Rain = 0
KMNS 201400Z 18005KT 25/14 A3016 RMK A01 T02500142  RH  053%=      5-min Rain = 0
KMNS 201405Z 19006KT 25/14 A3016 RMK A01 T02510142  RH  053%=      5-min Rain = 0
KMNS 201410Z 19006KT 25/15 A3016 RMK A01 T02520145  RH  054%=      5-min Rain = 0
KMNS 201415Z 19006KT 25/15 A3016 RMK A01 T02520147  RH  055%=      5-min Rain = 0
KMNS 201420Z 19007KT 25/15 A3016 RMK A01 T02540147  RH  054%=      5-min Rain = 0
KMNS 201425Z 19009KT 26/15 A3016 RMK A01 T02600148  RH  053%=      5-min Rain = 0
KMNS 201430Z 19009KT 27/15 A3016 RMK A01 T02650150  RH  052%=      5-min Rain = 0
KMNS 201435Z 19009G14KT 26/15 A3016 RMK A01 T02620151  RH  053%=      5-min Rain = 0
KMNS 201440Z 20009G14KT 26/15 A3016 RMK A01 T02630152  RH  053%=      5-min Rain = 0
KMNS 201445Z 20009KT 26/15 A3016 RMK A01 T02620151  RH  053%=      5-min Rain = 0
KMNS 201450Z 21007KT 26/15 A3016 RMK A01 T02620152  RH  053%=      5-min Rain = 0
KMNS 201455Z 21009KT 26/15 A3017 RMK A01 T02630152  RH  053%=      5-min Rain = 0
KMNS 201500Z 21008KT 26/15 A3017 RMK A01 T02630152  RH  053%=      5-min Rain = 0
KMNS 201505Z 21010G15KT 26/15 A3017 RMK A01 T02630153  RH  053%=      5-min Rain = 0
KMNS 201510Z 20010KT 26/15 A3017 RMK A01 T02640153  RH  053%=      5-min Rain = 0
KMNS 201515Z 20009KT 27/16 A3017 RMK A01 T02650155  RH  053%=      5-min Rain = 0
KMNS 201520Z 20010KT 27/15 A3017 RMK A01 T02670153  RH  052%=      5-min Rain = 0
KMNS 201525Z 20009KT 27/16 A3017 RMK A01 T02680155  RH  052%=      5-min Rain = 0
KMNS 201530Z 20008KT 27/16 A3017 RMK A01 T02690156  RH  052%=      5-min Rain = 0
KMNS 201535Z 21008KT 27/16 A3017 RMK A01 T02700158  RH  053%=      5-min Rain = 0
KMNS 201540Z 19009KT 27/16 A3017 RMK A01 T02720158  RH  052%=      5-min Rain = 0
KMNS 201545Z 20009KT 27/16 A3017 RMK A01 T02730158  RH  052%=      5-min Rain = 0
KMNS 201550Z 21011KT 27/16 A3017 RMK A01 T02730156  RH  051%=      5-min Rain = 0
KMNS 201555Z 20011KT 28/15 A3017 RMK A01 T02750154  RH  050%=      5-min Rain = 0
KMNS 201600Z 21010KT 28/16 A3017 RMK A01 T02760156  RH  050%=      5-min Rain = 0
KMNS 201605Z 21011KT 28/16 A3017 RMK A01 T02770155  RH  050%=      5-min Rain = 0
KMNS 201610Z 21009G14KT 28/16 A3017 RMK A01 T02800157  RH  049%=      5-min Rain = 0
KMNS 201615Z 21010KT 28/16 A3017 RMK A01 T02820156  RH  048%=      5-min Rain = 0
KMNS 201620Z 21011KT 28/15 A3017 RMK A01 T02840154  RH  047%=      5-min Rain = 0
KMNS 201625Z 21009G14KT 29/15 A3017 RMK A01 T02860154  RH  047%=      5-min Rain = 0
KMNS 201630Z 20008KT 29/16 A3017 RMK A01 T02920156  RH  046%=      5-min Rain = 0
KMNS 201635Z 21006KT 29/15 A3017 RMK A01 T02940154  RH  045%=      5-min Rain = 0
KMNS 201640Z 23007KT 30/15 A3017 RMK A01 T03000154  RH  043%=      5-min Rain = 0
KMNS 201645Z 23006KT 30/16 A3017 RMK A01 T03000155  RH  043%=      5-min Rain = 0
KMNS 201650Z 23005KT 30/16 A3017 RMK A01 T03010155  RH  043%=      5-min Rain = 0
KMNS 201655Z 20007G12KT 31/15 A3017 RMK A01 T03050149  RH  041%=      5-min Rain = 0
KMNS 201700Z 20010KT 31/14 A3017 RMK A01 T03060140  RH  038%=      5-min Rain = 0
KMNS 201705Z 21009KT 31/14 A3017 RMK A01 T03050140  RH  038%=      5-min Rain = 0
KMNS 201710Z 20009KT 31/14 A3017 RMK A01 T03050139  RH  038%=      5-min Rain = 0
KMNS 201715Z 19008KT 31/14 A3017 RMK A01 T03100140  RH  037%=      5-min Rain = 0
KMNS 201720Z 18007KT 31/14 A3017 RMK A01 T03120141  RH  037%=      5-min Rain = 0
KMNS 201725Z 19007KT 31/14 A3017 RMK A01 T03130141  RH  037%=      5-min Rain = 0
KMNS 201730Z 20008KT 31/14 A3017 RMK A01 T03140138  RH  036%=      5-min Rain = 0
KMNS 201735Z 20007KT 31/14 A3017 RMK A01 T03130139  RH  036%=      5-min Rain = 0
KMNS 201740Z 20007KT 32/14 A3017 RMK A01 T03160139  RH  036%=      5-min Rain = 0
KMNS 201745Z 19007KT 32/14 A3016 RMK A01 T03190136  RH  034%=      5-min Rain = 0
KMNS 201750Z 20007KT 32/14 A3016 RMK A01 T03170136  RH  035%=      5-min Rain = 0
KMNS 201755Z 18008KT 32/13 A3016 RMK A01 T03230133  RH  033%=      5-min Rain = 0
KMNS 201800Z 19006KT 32/13 A3016 RMK A01 T03190131  RH  033%=      5-min Rain = 0
KMNS 201805Z 19008KT 32/13 A3016 RMK A01 T03220134  RH  033%=      5-min Rain = 0
KMNS 201810Z 17006KT 32/13 A3016 RMK A01 T03220129  RH  032%=      5-min Rain = 0
KMNS 201815Z 19007KT 33/13 A3015 RMK A01 T03250127  RH  031%=      5-min Rain = 0
KMNS 201820Z 16005KT 33/13 A3015 RMK A01 T03280128  RH  031%=      5-min Rain = 0
KMNS 201825Z 16006KT 33/13 A3015 RMK A01 T03310131  RH  031%=      5-min Rain = 0
KMNS 201830Z 16007KT 34/13 A3015 RMK A01 T03380126  RH  029%=      5-min Rain = 0
KMNS 201835Z 16005KT 33/13 A3015 RMK A01 T03340126  RH  029%=      5-min Rain = 0
KMNS 201840Z 16005KT 34/13 A3015 RMK A01 T03370125  RH  029%=      5-min Rain = 0
KMNS 201845Z 16007KT 34/12 A3014 RMK A01 T03390122  RH  028%=      5-min Rain = 0
KMNS 201850Z 19005KT 34/12 A3014 RMK A01 T03360122  RH  028%=      5-min Rain = 0
KMNS 201855Z 15007KT 34/12 A3014 RMK A01 T03440118  RH  026%=      5-min Rain = 0
KMNS 201900Z 15006KT 35/12 A3014 RMK A01 T03470117  RH  026%=      5-min Rain = 0
KMNS 201905Z 16006G11KT 35/12 A3014 RMK A01 T03500117  RH  025%=      5-min Rain = 0
KMNS 201910Z 15006KT 34/12 A3014 RMK A01 T03430122  RH  027%=      5-min Rain = 0
KMNS 201915Z 14007G12KT 34/12 A3014 RMK A01 T03440123  RH  027%=      5-min Rain = 0
KMNS 201920Z 12005G11KT 34/12 A3014 RMK A01 T03430119  RH  027%=      5-min Rain = 0
KMNS 201925Z 12006KT 34/12 A3014 RMK A01 T03410122  RH  028%=      5-min Rain = 0
KMNS 201930Z 10009KT 34/13 A3013 RMK A01 T03410126  RH  028%=      5-min Rain = 0
KMNS 201935Z 11009KT 34/12 A3013 RMK A01 T03420122  RH  027%=      5-min Rain = 0
KMNS 201940Z 10007KT 35/13 A3013 RMK A01 T03480125  RH  027%=      5-min Rain = 0
KMNS 201945Z 10007G18KT 35/13 A3013 RMK A01 T03470125  RH  027%=      5-min Rain = 0
KMNS 201950Z 12011KT 36/13 A3013 RMK A01 T03560125  RH  026%=      5-min Rain = 0
KMNS 201955Z 11012KT 35/13 A3013 RMK A01 T03510126  RH  027%=      5-min Rain = 0
KMNS 202000Z 12011KT 35/12 A3013 RMK A01 T03460121  RH  027%=      5-min Rain = 0
KMNS 202005Z 11010KT 35/12 A3012 RMK A01 T03470118  RH  026%=      5-min Rain = 0
KMNS 202010Z 12010KT 35/12 A3012 RMK A01 T03500116  RH  025%=      5-min Rain = 0
KMNS 202015Z 13010KT 36/11 A3012 RMK A01 T03550108  RH  023%=      5-min Rain = 0
KMNS 202020Z 15009KT 35/11 A3012 RMK A01 T03540106  RH  023%=      5-min Rain = 0
KMNS 202025Z 15009KT 35/11 A3012 RMK A01 T03510105  RH  023%=      5-min Rain = 0
KMNS 202030Z 14009KT 35/11 A3011 RMK A01 T03520105  RH  023%=      5-min Rain = 0
KMNS 202035Z 15009G14KT 36/10 A3011 RMK A01 T03580104  RH  022%=      5-min Rain = 0
KMNS 202040Z 15011KT 36/10 A3011 RMK A01 T03640100  RH  021%=      5-min Rain = 0
KMNS 202045Z 14009G14KT 36/09 A3011 RMK A01 T03580093  RH  021%=      5-min Rain = 0
KMNS 202050Z 15012KT 37/07 A301 RMK A01 T03660071  RH  017%=      5-min Rain = 0
KMNS 202055Z 15013KT 36/04 A301 RMK A01 T03600044  RH  014%=      5-min Rain = 0
KMNS 202100Z 15014KT 36/05 A301 RMK A01 T03590054  RH  016%=      5-min Rain = 0
KMNS 202105Z 14012G17KT 36/05 A301 RMK A01 T03590046  RH  015%=      5-min Rain = 0
KMNS 202110Z 15013KT 35/04 A301 RMK A01 T03540038  RH  014%=      5-min Rain = 0
KMNS 202115Z 15011KT 36/05 A3009 RMK A01 T03600051  RH  015%=      5-min Rain = 0
KMNS 202120Z 15012G17KT 36/06 A3009 RMK A01 T03560056  RH  016%=      5-min Rain = 0
KMNS 202125Z 15012KT 36/05 A3009 RMK A01 T03590048  RH  015%=      5-min Rain = 0
KMNS 202130Z 14012KT 36/07 A3009 RMK A01 T03640069  RH  017%=      5-min Rain = 0
KMNS 202135Z 14011KT 36/08 A3009 RMK A01 T03560081  RH  019%=      5-min Rain = 0
KMNS 202140Z 15012KT 36/09 A3008 RMK A01 T03550089  RH  020%=      5-min Rain = 0
KMNS 202145Z 14012KT 36/09 A3008 RMK A01 T03550094  RH  021%=      5-min Rain = 0
KMNS 202150Z 15010KT 35/10 A3008 RMK A01 T03540099  RH  022%=      5-min Rain = 0
KMNS 202155Z 14010KT 36/10 A3008 RMK A01 T03630097  RH  021%=      5-min Rain = 0
KMNS 202200Z 14011KT 36/09 A3008 RMK A01 T03620094  RH  020%=      5-min Rain = 0
KMNS 202205Z 15010KT 36/09 A3008 RMK A01 T03570093  RH  021%=      5-min Rain = 0
KMNS 202210Z 13011KT 37/09 A3007 RMK A01 T03650091  RH  020%=      5-min Rain = 0
KMNS 202215Z 13011KT 37/08 A3007 RMK A01 T03730084  RH  018%=      5-min Rain = 0
KMNS 202220Z 15011G16KT 37/08 A3007 RMK A01 T03730084  RH  018%=      5-min Rain = 0
KMNS 202225Z 15011KT 37/08 A3007 RMK A01 T03700075  RH  017%=      5-min Rain = 0
KMNS 202230Z 15012KT 37/07 A3007 RMK A01 T03650074  RH  017%=      5-min Rain = 0
KMNS 202235Z 14011KT 36/09 A3007 RMK A01 T03620085  RH  019%=      5-min Rain = 0
KMNS 202240Z 14012G17KT 36/09 A3007 RMK A01 T03630085  RH  019%=      5-min Rain = 0
KMNS 202245Z 14012KT 35/08 A3007 RMK A01 T03540081  RH  019%=      5-min Rain = 0
KMNS 202250Z 14010KT 35/09 A3007 RMK A01 T03490088  RH  021%=      5-min Rain = 0
KMNS 202255Z 15011KT 35/09 A3007 RMK A01 T03490090  RH  021%=      5-min Rain = 0
KMNS 202300Z 14011KT 35/10 A3007 RMK A01 T03470097  RH  022%=      5-min Rain = 0
KMNS 202305Z 13010KT 35/09 A3007 RMK A01 T03500092  RH  021%=      5-min Rain = 0
KMNS 202310Z 12009KT 35/10 A3007 RMK A01 T03490099  RH  022%=      5-min Rain = 0
KMNS 202315Z 15009KT 35/10 A3007 RMK A01 T03460100  RH  023%=      5-min Rain = 0
KMNS 202320Z 14009KT 34/10 A3007 RMK A01 T03430097  RH  023%=      5-min Rain = 0
KMNS 202325Z 15009KT 34/10 A3007 RMK A01 T03430096  RH  023%=      5-min Rain = 0
KMNS 202330Z 15008KT 34/11 A3007 RMK A01 T03400106  RH  025%=      5-min Rain = 0
KMNS 202335Z 14008KT 34/11 A3007 RMK A01 T03390108  RH  025%=      5-min Rain = 0
KMNS 202340Z 14009KT 34/10 A3007 RMK A01 T03390101  RH  024%=      5-min Rain = 0
KMNS 202345Z 14009KT 34/10 A3007 RMK A01 T03390100  RH  024%=      5-min Rain = 0
KMNS 202350Z 15009KT 34/11 A3007 RMK A01 T03380106  RH  025%=      5-min Rain = 0
KMNS 202355Z 14010KT 34/10 A3007 RMK A01 T03380103  RH  025%=      5-min Rain = 0
KMNS 210000Z 14011KT 34/10 A3007 RMK A01 T03400096  RH  023%=      5-min Rain = 0
KMNS 210005Z 15010KT 34/10 A3007 RMK A01 T03380102  RH  024%=      5-min Rain = 0
KMNS 210010Z 14008KT 33/11 A3007 RMK A01 T03340107  RH  026%=      5-min Rain = 0
KMNS 210015Z 14007KT 34/11 A3007 RMK A01 T03350108  RH  026%=      5-min Rain = 0
KMNS 210020Z 14009KT 34/10 A3007 RMK A01 T03360101  RH  025%=      5-min Rain = 0
KMNS 210025Z 14009KT 34/10 A3007 RMK A01 T03350101  RH  025%=      5-min Rain = 0
KMNS 210030Z 15009KT 33/11 A3007 RMK A01 T03340105  RH  026%=      5-min Rain = 0
KMNS 210035Z 15009KT 33/11 A3007 RMK A01 T03340105  RH  026%=      5-min Rain = 0
KMNS 210040Z 15009KT 33/11 A3007 RMK A01 T03320108  RH  026%=      5-min Rain = 0
KMNS 210045Z 15008KT 33/11 A3008 RMK A01 T03300108  RH  027%=      5-min Rain = 0
KMNS 210050Z 14008KT 33/11 A3008 RMK A01 T03290109  RH  027%=      5-min Rain = 0
KMNS 210055Z 14009KT 33/11 A3008 RMK A01 T03250110  RH  028%=      5-min Rain = 0
KMNS 210100Z 14009KT 32/11 A3008 RMK A01 T03230110  RH  028%=      5-min Rain = 0
KMNS 210105Z 15010KT 32/11 A3008 RMK A01 T03200110  RH  029%=      5-min Rain = 0
KMNS 210110Z 15010KT 32/11 A3008 RMK A01 T03160111  RH  029%=      5-min Rain = 0
KMNS 210115Z 14009KT 31/11 A3008 RMK A01 T03130110  RH  030%=      5-min Rain = 0
KMNS 210120Z 14009KT 31/11 A3008 RMK A01 T03120107  RH  029%=      5-min Rain = 0
KMNS 210125Z 14007KT 31/11 A3008 RMK A01 T03090107  RH  030%=      5-min Rain = 0
KMNS 210130Z 15008KT 31/11 A3008 RMK A01 T03070106  RH  030%=      5-min Rain = 0
KMNS 210135Z 15008KT 30/11 A3008 RMK A01 T03040106  RH  030%=      5-min Rain = 0
KMNS 210140Z 14007KT 30/11 A3008 RMK A01 T03010106  RH  031%=      5-min Rain = 0
KMNS 210145Z 15007KT 30/11 A3008 RMK A01 T02970106  RH  032%=      5-min Rain = 0
KMNS 210150Z 15007KT 30/11 A3008 RMK A01 T02950107  RH  032%=      5-min Rain = 0
KMNS 210155Z 15007KT 29/11 A3008 RMK A01 T02920108  RH  033%=      5-min Rain = 0
KMNS 210200Z 15006KT 29/11 A3009 RMK A01 T02890109  RH  034%=      5-min Rain = 0
KMNS 210205Z 15007KT 29/11 A3009 RMK A01 T02880108  RH  034%=      5-min Rain = 0
KMNS 210210Z 15007KT 29/11 A3009 RMK A01 T02870107  RH  034%=      5-min Rain = 0
KMNS 210215Z 15007KT 28/11 A3009 RMK A01 T02840107  RH  034%=      5-min Rain = 0
KMNS 210220Z 15007KT 28/11 A3009 RMK A01 T02820106  RH  035%=      5-min Rain = 0
KMNS 210225Z 15007KT 28/11 A301 RMK A01 T02810105  RH  035%=      5-min Rain = 0
KMNS 210230Z 15008KT 28/10 A301 RMK A01 T02800104  RH  034%=      5-min Rain = 0
KMNS 210235Z 15008KT 28/10 A301 RMK A01 T02800103  RH  034%=      5-min Rain = 0
KMNS 210240Z 15008KT 28/10 A301 RMK A01 T02810103  RH  034%=      5-min Rain = 0
KMNS 210245Z 15008KT 28/10 A301 RMK A01 T02820103  RH  034%=      5-min Rain = 0
KMNS 210250Z 15008KT 28/10 A301 RMK A01 T02820103  RH  034%=      5-min Rain = 0
KMNS 210255Z 15008KT 28/10 A301 RMK A01 T02800103  RH  034%=      5-min Rain = 0
KMNS 210300Z 15008KT 28/10 A301 RMK A01 T02790103  RH  034%=      5-min Rain = 0
KMNS 210305Z 15008KT 28/10 A301 RMK A01 T02780103  RH  035%=      5-min Rain = 0
KMNS 210310Z 14007KT 28/10 A3011 RMK A01 T02760104  RH  035%=      5-min Rain = 0
KMNS 210315Z 15007KT 28/10 A3011 RMK A01 T02750104  RH  035%=      5-min Rain = 0
KMNS 210320Z 15007KT 27/10 A3011 RMK A01 T02740104  RH  036%=      5-min Rain = 0
KMNS 210325Z 15008KT 27/11 A3011 RMK A01 T02740105  RH  036%=      5-min Rain = 0
KMNS 210330Z 15008KT 27/11 A3011 RMK A01 T02720105  RH  036%=      5-min Rain = 0
KMNS 210335Z 15008KT 27/11 A3011 RMK A01 T02720105  RH  036%=      5-min Rain = 0
KMNS 210340Z 16007KT 27/11 A3011 RMK A01 T02710105  RH  037%=      5-min Rain = 0
KMNS 210345Z 16006KT 27/11 A3011 RMK A01 T02690105  RH  037%=      5-min Rain = 0
KMNS 210350Z 16007KT 27/11 A3011 RMK A01 T02660106  RH  038%=      5-min Rain = 0
KMNS 210355Z 16007KT 27/11 A3011 RMK A01 T02660106  RH  038%=      5-min Rain = 0
KMNS 210400Z 16007KT 27/11 A3011 RMK A01 T02650105  RH  038%=      5-min Rain = 0
KMNS 210405Z 16007KT 26/10 A3011 RMK A01 T02640104  RH  038%=      5-min Rain = 0
KMNS 210410Z 16007KT 26/10 A3011 RMK A01 T02620104  RH  038%=      5-min Rain = 0
KMNS 210415Z 16007KT 26/10 A3011 RMK A01 T02610104  RH  039%=      5-min Rain = 0
KMNS 210420Z 16007KT 26/10 A3011 RMK A01 T02610104  RH  039%=      5-min Rain = 0
KMNS 210425Z 16007KT 26/10 A3011 RMK A01 T02600104  RH  039%=      5-min Rain = 0
KMNS 210430Z 17007KT 26/10 A3011 RMK A01 T02590103  RH  039%=      5-min Rain = 0
KMNS 210435Z 17007KT 26/10 A3011 RMK A01 T02570104  RH  039%=      5-min Rain = 0
KMNS 210440Z 17007KT 25/11 A3011 RMK A01 T02540105  RH  040%=      5-min Rain = 0
KMNS 210445Z 17008KT 26/11 A3011 RMK A01 T02560105  RH  040%=      5-min Rain = 0
KMNS 210450Z 17008KT 26/11 A3011 RMK A01 T02560105  RH  040%=      5-min Rain = 0
KMNS 210455Z 16008KT 26/10 A3011 RMK A01 T02580104  RH  039%=      5-min Rain = 0

Page generated in 0.0091 seconds.